Time;durP1;ratioP1;P1;durP2;ratioP2;P2;SDS_P1;SDS_P2;PMS_P1;PMS_P2;Temp;Humidity;BMP_temperature;BMP_pressure;BME280_temperature;BME280_humidity;BME280_pressure;Samples;Min_cycle;Max_cycle;Signal;HPM_P1;HPM_P2
2022/08/26 00:00:27;;;;;;;4.97;2.70;;;23.50;79.00;;;;;;5097326;28;20032;-83
2022/08/26 00:02:53;;;;;;;3.38;2.55;;;23.40;79.10;;;;;;5096190;28;20035;-84
2022/08/26 00:05:19;;;;;;;3.35;2.25;;;23.40;79.20;;;;;;5096466;28;20032;-83
2022/08/26 00:07:44;;;;;;;5.45;3.10;;;23.40;79.30;;;;;;5096535;28;20031;-83
2022/08/26 00:10:11;;;;;;;3.53;2.50;;;23.30;79.40;;;;;;5095545;28;20031;-83
2022/08/26 00:12:37;;;;;;;3.15;2.65;;;23.30;79.70;;;;;;5095739;28;20020;-81
2022/08/26 00:15:05;;;;;;;7.22;2.80;;;23.20;79.80;;;;;;5095238;28;20074;-82
2022/08/26 00:17:30;;;;;;;5.90;2.50;;;23.10;79.80;;;;;;5096952;28;20034;-81
2022/08/26 00:19:56;;;;;;;4.90;2.90;;;23.10;80.10;;;;;;5096112;28;20080;-82
2022/08/26 00:22:22;;;;;;;4.70;2.67;;;23.10;80.50;;;;;;5095081;28;20030;-81
2022/08/26 00:24:47;;;;;;;4.75;2.40;;;23.00;80.60;;;;;;5095427;28;20115;-81
2022/08/26 00:27:13;;;;;;;4.82;3.10;;;23.00;80.80;;;;;;5094689;28;20231;-81
2022/08/26 00:29:38;;;;;;;6.15;3.03;;;23.00;80.90;;;;;;5095379;28;20039;-81
2022/08/26 00:32:05;;;;;;;4.82;3.13;;;23.00;81.00;;;;;;5094977;28;20031;-81
2022/08/26 00:34:30;;;;;;;6.25;2.90;;;23.00;81.00;;;;;;5095147;28;20085;-81
2022/08/26 00:36:56;;;;;;;4.53;2.80;;;23.00;81.00;;;;;;5095890;28;20033;-84
2022/08/26 00:39:22;;;;;;;5.13;2.78;;;23.00;81.10;;;;;;5096333;28;20082;-81
2022/08/26 00:41:48;;;;;;;3.80;2.65;;;23.00;81.30;;;;;;5095252;28;20024;-81
2022/08/26 00:44:14;;;;;;;3.63;2.60;;;23.00;81.40;;;;;;5094608;28;20035;-81
2022/08/26 00:46:59;;;;;;;3.75;2.60;;;23.00;81.40;;;;;;5095278;28;20071;-79
2022/08/26 00:49:38;;;;;;;4.15;2.80;;;23.00;81.70;;;;;;5096409;28;20024;-81
2022/08/26 00:52:07;;;;;;;6.78;2.92;;;23.00;81.70;;;;;;5093996;28;20020;-81
2022/08/26 00:54:39;;;;;;;4.07;2.70;;;23.00;81.90;;;;;;5095973;28;20086;-81
2022/08/26 00:57:08;;;;;;;4.75;2.78;;;23.00;82.10;;;;;;5095495;28;20111;-81
2022/08/26 00:59:34;;;;;;;4.38;3.10;;;23.00;82.40;;;;;;5094944;28;20020;-81
2022/08/26 01:02:01;;;;;;;5.93;2.75;;;23.00;82.50;;;;;;5095222;28;20446;-82
2022/08/26 01:04:28;;;;;;;3.70;2.63;;;23.00;82.80;;;;;;5094427;28;20085;-81
2022/08/26 01:06:56;;;;;;;5.75;2.85;;;22.90;82.90;;;;;;5095526;28;20166;-81
2022/08/26 01:09:22;;;;;;;4.43;2.72;;;22.90;84.40;;;;;;5094492;28;20035;-80
2022/08/26 01:11:49;;;;;;;5.53;3.50;;;22.90;85.30;;;;;;5094766;28;20059;-81
2022/08/26 01:14:17;;;;;;;5.25;3.08;;;23.00;85.90;;;;;;5093844;28;20032;-80
2022/08/26 01:16:43;;;;;;;7.25;2.97;;;23.00;86.50;;;;;;5094104;28;20036;-81
2022/08/26 01:19:36;;;;;;;4.13;2.92;;;23.00;86.90;;;;;;5093708;28;20032;-82
2022/08/26 01:22:09;;;;;;;5.03;2.90;;;22.90;87.50;;;;;;5094732;28;20040;-82
2022/08/26 01:24:36;;;;;;;5.05;3.45;;;22.90;87.60;;;;;;5094440;28;20032;-80
2022/08/26 01:27:06;;;;;;;6.28;3.50;;;22.80;87.80;;;;;;5095381;28;20024;-81
2022/08/26 01:29:34;;;;;;;5.38;2.92;;;22.80;87.90;;;;;;5094992;28;20049;-81
2022/08/26 01:32:00;;;;;;;4.57;3.33;;;22.80;88.00;;;;;;5093886;28;20024;-81
2022/08/26 01:34:33;;;;;;;4.82;2.72;;;22.70;88.30;;;;;;5094358;28;20038;-81
2022/08/26 01:37:10;;;;;;;3.20;2.83;;;22.60;88.80;;;;;;5095217;28;20080;-83
2022/08/26 01:39:37;;;;;;;5.53;3.20;;;22.60;89.30;;;;;;5094568;28;20111;-81
2022/08/26 01:42:04;;;;;;;4.20;3.30;;;22.50;89.10;;;;;;5094898;28;20028;-82
2022/08/26 01:44:44;;;;;;;4.88;3.33;;;22.50;89.00;;;;;;5094488;28;20028;-81
2022/08/26 01:47:12;;;;;;;6.35;3.20;;;22.40;89.50;;;;;;5094999;28;20055;-82
2022/08/26 01:49:39;;;;;;;4.43;2.90;;;22.30;89.40;;;;;;5094106;28;20028;-82
2022/08/26 01:52:07;;;;;;;5.53;3.35;;;22.30;89.40;;;;;;5093341;28;20039;-82
2022/08/26 01:54:33;;;;;;;5.53;3.30;;;22.30;89.40;;;;;;5095210;28;20036;-82
2022/08/26 01:57:00;;;;;;;6.47;3.60;;;22.30;89.40;;;;;;5094796;28;20028;-83
2022/08/26 01:59:27;;;;;;;5.38;3.33;;;22.30;89.30;;;;;;5094886;28;20028;-81
2022/08/26 02:01:52;;;;;;;5.47;3.08;;;22.20;89.40;;;;;;5094150;28;20507;-82
2022/08/26 02:04:28;;;;;;;6.07;3.75;;;22.20;89.70;;;;;;5093473;28;20032;-81
2022/08/26 02:06:55;;;;;;;4.97;3.38;;;22.20;89.80;;;;;;5093805;28;20030;-81
2022/08/26 02:09:22;;;;;;;4.55;3.67;;;22.20;90.00;;;;;;5093178;28;20069;-81
2022/08/26 02:11:48;;;;;;;5.88;3.40;;;22.20;90.10;;;;;;5093565;28;20031;-80
2022/08/26 02:14:25;;;;;;;7.03;3.67;;;22.30;90.10;;;;;;5092608;28;20028;-78
2022/08/26 02:16:51;;;;;;;5.38;3.70;;;22.30;90.20;;;;;;5093590;28;20028;-79
2022/08/26 02:19:25;;;;;;;4.47;3.35;;;22.30;90.20;;;;;;5093786;28;20039;-79
2022/08/26 02:21:52;;;;;;;4.93;3.20;;;22.20;90.30;;;;;;5093020;28;20024;-79
2022/08/26 02:24:29;;;;;;;6.63;3.55;;;22.10;90.40;;;;;;5092651;28;20036;-79
2022/08/26 02:26:56;;;;;;;6.78;3.05;;;22.00;90.70;;;;;;5093207;28;20032;-80
2022/08/26 02:29:36;;;;;;;5.05;3.47;;;22.00;90.70;;;;;;5093394;28;20027;-79
2022/08/26 02:32:02;;;;;;;6.53;3.88;;;22.00;90.90;;;;;;5092936;28;20069;-84
2022/08/26 02:34:32;;;;;;;6.03;3.67;;;22.00;90.90;;;;;;5094040;28;20141;-80
2022/08/26 02:37:08;;;;;;;4.35;3.30;;;21.90;91.10;;;;;;5093447;28;20047;-80
2022/08/26 02:39:36;;;;;;;5.70;3.85;;;21.80;91.00;;;;;;5093375;28;20024;-79
2022/08/26 02:42:03;;;;;;;5.22;3.58;;;21.80;91.10;;;;;;5094599;28;20027;-80
2022/08/26 02:44:29;;;;;;;5.15;3.30;;;21.80;91.20;;;;;;5094658;28;20050;-80
2022/08/26 02:46:55;;;;;;;4.18;3.25;;;21.80;91.50;;;;;;5093795;28;20473;-79
2022/08/26 02:49:22;;;;;;;7.30;3.70;;;21.70;91.70;;;;;;5093927;28;20139;-80
2022/08/26 02:51:48;;;;;;;4.80;3.60;;;21.70;91.70;;;;;;5094287;28;20024;-78
2022/08/26 02:54:20;;;;;;;5.20;3.58;;;21.60;91.80;;;;;;5092738;28;20582;-79
2022/08/26 02:56:45;;;;;;;;;;;21.60;91.90;;;;;;5093832;28;20031;-80
2022/08/26 02:59:11;;;;;;;5.50;3.50;;;21.50;92.10;;;;;;5093770;28;19904;-80
2022/08/26 03:01:39;;;;;;;5.38;3.58;;;21.50;92.20;;;;;;5093444;28;20528;-79
2022/08/26 03:04:06;;;;;;;7.55;3.67;;;21.50;92.20;;;;;;5092597;28;20496;-82
2022/08/26 03:06:32;;;;;;;5.78;4.00;;;21.50;92.80;;;;;;5092708;28;20115;-79
2022/08/26 03:08:58;;;;;;;8.80;3.42;;;21.40;93.10;;;;;;5092553;28;20104;-80
2022/08/26 03:11:24;;;;;;;4.57;3.50;;;21.50;93.30;;;;;;5093523;28;20031;-80
2022/08/26 03:13:50;;;;;;;5.25;3.30;;;21.50;93.70;;;;;;5092935;28;20081;-79
2022/08/26 03:16:17;;;;;;;4.82;3.53;;;21.40;93.50;;;;;;5093598;28;20024;-78
2022/08/26 03:18:42;;;;;;;5.68;3.60;;;21.40;93.60;;;;;;5092642;28;20035;-79
2022/08/26 03:21:14;;;;;;;7.60;4.45;;;21.40;93.70;;;;;;5092701;28;20024;-80
2022/08/26 03:23:41;;;;;;;6.72;3.58;;;21.40;93.70;;;;;;5092393;28;20481;-79
2022/08/26 03:26:08;;;;;;;5.35;3.97;;;21.40;93.90;;;;;;5094383;28;20035;-82
2022/08/26 03:28:34;;;;;;;6.40;3.45;;;21.40;94.20;;;;;;5097107;28;20024;-79
2022/08/26 03:31:00;;;;;;;4.85;3.63;;;21.30;94.40;;;;;;5098134;28;20405;-79
2022/08/26 03:33:26;;;;;;;6.47;3.78;;;21.30;94.60;;;;;;5096336;28;20028;-79
2022/08/26 03:35:52;;;;;;;8.90;4.00;;;21.30;94.70;;;;;;5098186;28;20032;-79
2022/08/26 03:38:23;;;;;;;5.97;3.53;;;21.20;94.80;;;;;;5096515;28;20020;-79
2022/08/26 03:40:50;;;;;;;9.43;3.53;;;21.10;94.60;;;;;;5096634;28;20166;-78
2022/08/26 03:43:16;;;;;;;6.97;3.53;;;21.10;94.50;;;;;;5097167;28;20032;-78
2022/08/26 03:45:43;;;;;;;5.25;3.05;;;21.00;94.40;;;;;;5097588;28;20032;-78
2022/08/26 03:48:10;;;;;;;5.93;4.05;;;21.00;94.30;;;;;;5096152;28;20028;-81
2022/08/26 03:50:36;;;;;;;5.13;3.45;;;20.90;94.20;;;;;;5096600;28;20469;-79
2022/08/26 03:53:03;;;;;;;5.90;3.70;;;20.90;94.20;;;;;;5096208;28;20516;-79
2022/08/26 03:55:31;;;;;;;5.20;3.30;;;20.90;94.20;;;;;;5096867;28;20040;-80
2022/08/26 03:57:57;;;;;;;7.63;3.45;;;20.80;94.40;;;;;;5096777;28;20035;-80
2022/08/26 04:00:23;;;;;;;5.72;3.70;;;20.80;94.40;;;;;;5096126;28;20028;-80
2022/08/26 04:02:49;;;;;;;5.45;3.58;;;20.90;94.40;;;;;;5097276;28;20055;-79
2022/08/26 04:05:18;;;;;;;4.85;3.47;;;20.90;94.50;;;;;;5096973;28;20028;-80
2022/08/26 04:07:44;;;;;;;7.65;3.78;;;20.90;94.70;;;;;;5096205;28;20027;-80
2022/08/26 04:10:12;;;;;;;5.32;3.80;;;20.90;95.00;;;;;;5095913;28;20033;-82
2022/08/26 04:12:38;;;;;;;4.40;3.60;;;20.80;95.20;;;;;;5097379;28;20058;-80
2022/08/26 04:15:06;;;;;;;5.03;3.75;;;20.80;95.30;;;;;;5096280;28;20461;-80
2022/08/26 04:17:32;;;;;;;5.80;3.25;;;20.90;95.30;;;;;;5096055;28;20024;-80
2022/08/26 04:19:58;;;;;;;6.75;3.65;;;20.80;95.40;;;;;;5096448;28;20036;-80
2022/08/26 04:22:24;;;;;;;4.65;3.75;;;20.80;95.60;;;;;;5095443;28;20028;-80
2022/08/26 04:24:49;;;;;;;7.88;4.03;;;20.80;95.80;;;;;;5095991;28;20114;-80
2022/08/26 04:27:15;;;;;;;6.07;3.75;;;20.70;95.90;;;;;;5096506;28;20526;-79
2022/08/26 04:29:40;;;;;;;6.55;3.80;;;20.60;95.90;;;;;;5096117;28;20111;-79
2022/08/26 04:32:07;;;;;;;4.68;3.67;;;20.60;95.80;;;;;;5095682;28;20024;-79
2022/08/26 04:34:34;;;;;;;4.05;3.50;;;20.60;95.80;;;;;;5095349;28;20042;-78
2022/08/26 04:37:00;;;;;;;6.88;4.28;;;20.60;95.70;;;;;;5095379;28;20597;-78
2022/08/26 04:39:26;;;;;;;6.00;3.85;;;20.60;95.50;;;;;;5095304;28;20063;-79
2022/08/26 04:41:55;;;;;;;7.32;4.18;;;20.60;95.40;;;;;;5095276;28;20028;-78
2022/08/26 04:44:23;;;;;;;6.18;4.10;;;20.60;95.30;;;;;;5094813;28;20390;-78
2022/08/26 04:46:48;;;;;;;6.82;3.83;;;20.50;95.30;;;;;;5095292;28;20114;-79
2022/08/26 04:49:14;;;;;;;8.25;4.13;;;20.60;95.30;;;;;;5095091;28;20418;-78
2022/08/26 04:51:40;;;;;;;4.55;3.42;;;20.50;95.40;;;;;;5094875;28;20109;-78
2022/08/26 04:54:06;;;;;;;4.32;3.78;;;20.50;95.40;;;;;;5095045;28;20052;-80
2022/08/26 04:56:35;;;;;;;5.47;3.88;;;20.40;95.40;;;;;;5095686;28;20016;-79
2022/08/26 04:59:03;;;;;;;6.63;3.22;;;20.40;95.50;;;;;;5095087;28;20027;-79
2022/08/26 05:01:30;;;;;;;5.15;3.65;;;20.40;95.60;;;;;;5094252;28;20085;-79
2022/08/26 05:03:56;;;;;;;5.28;3.65;;;20.30;95.60;;;;;;5094930;28;20032;-80
2022/08/26 05:06:21;;;;;;;9.98;3.90;;;20.40;95.60;;;;;;5094510;28;20066;-80
2022/08/26 05:08:47;;;;;;;4.82;3.55;;;20.40;95.60;;;;;;5095410;28;20028;-79
2022/08/26 05:11:12;;;;;;;6.00;3.80;;;20.40;95.50;;;;;;5095720;28;20457;-82
2022/08/26 05:13:39;;;;;;;3.72;3.25;;;20.40;95.60;;;;;;5095360;28;20032;-80
2022/08/26 05:16:07;;;;;;;4.60;3.83;;;20.50;95.50;;;;;;5096279;28;20024;-81
2022/08/26 05:18:33;;;;;;;5.43;3.80;;;20.50;95.50;;;;;;5094365;28;20061;-80
2022/08/26 05:21:01;;;;;;;5.13;3.28;;;20.50;95.60;;;;;;5095845;28;20024;-80
2022/08/26 05:23:27;;;;;;;5.50;3.30;;;20.50;95.60;;;;;;5095080;28;20461;-80
2022/08/26 05:25:54;;;;;;;5.20;4.13;;;20.50;95.70;;;;;;5094672;28;20560;-80
2022/08/26 05:28:20;;;;;;;8.68;4.15;;;20.50;95.70;;;;;;5094362;28;20032;-80
2022/08/26 05:30:47;;;;;;;6.05;4.20;;;20.60;95.70;;;;;;5095583;28;20028;-80
2022/08/26 05:33:13;;;;;;;4.95;3.50;;;20.60;95.60;;;;;;5093919;28;20030;-80
2022/08/26 05:35:40;;;;;;;4.85;3.67;;;20.60;95.70;;;;;;5094439;28;20473;-80
2022/08/26 05:38:13;;;;;;;7.82;3.40;;;20.70;95.70;;;;;;5094636;28;20516;-80
2022/08/26 05:40:43;;;;;;;6.32;3.72;;;20.60;95.80;;;;;;5095320;28;20148;-79
2022/08/26 05:43:12;;;;;;;5.78;4.18;;;20.60;95.80;;;;;;5094534;28;20028;-80
2022/08/26 05:45:42;;;;;;;7.82;3.80;;;20.70;95.80;;;;;;5094352;28;20032;-80
2022/08/26 05:48:08;;;;;;;6.55;3.60;;;20.70;95.70;;;;;;5095885;28;20028;-80
2022/08/26 05:50:49;;;;;;;5.45;3.38;;;20.70;95.80;;;;;;5093476;28;20020;-80
2022/08/26 05:53:16;;;;;;;6.60;4.07;;;20.70;95.80;;;;;;5093879;28;20052;-82
2022/08/26 05:55:50;;;;;;;5.95;3.70;;;20.50;96.10;;;;;;5093816;28;20036;-80
2022/08/26 05:58:19;;;;;;;6.53;3.58;;;20.60;96.00;;;;;;5093761;28;20020;-83
2022/08/26 06:00:45;;;;;;;7.18;3.85;;;20.70;96.00;;;;;;5094464;28;20024;-81
2022/08/26 06:03:11;;;;;;;5.07;3.65;;;20.80;95.90;;;;;;5095298;28;20024;-81
2022/08/26 06:05:40;;;;;;;5.07;3.90;;;20.70;96.00;;;;;;5093658;28;20073;-81
2022/08/26 06:08:10;;;;;;;11.80;4.07;;;20.80;96.00;;;;;;5095320;28;20024;-81
2022/08/26 06:10:55;;;;;;;7.80;4.07;;;21.00;95.80;;;;;;5094254;28;20153;-80
2022/08/26 06:13:25;;;;;;;12.30;4.53;;;21.10;95.60;;;;;;5094103;28;20051;-80
2022/08/26 06:15:52;;;;;;;8.17;3.83;;;21.10;95.50;;;;;;5093641;28;20069;-80
2022/08/26 06:18:22;;;;;;;8.13;3.83;;;21.20;95.40;;;;;;5093821;28;20023;-81
2022/08/26 06:20:48;;;;;;;10.82;4.35;;;21.20;95.40;;;;;;5093259;28;20024;-80
2022/08/26 06:26:02;;;;;;;6.80;4.60;;;21.30;95.50;;;;;;5094311;28;20084;-80
2022/08/26 06:28:28;;;;;;;6.15;4.15;;;21.20;95.50;;;;;;5092675;28;20060;-80
2022/08/26 06:30:54;;;;;;;6.90;3.80;;;21.20;95.60;;;;;;5094701;28;20514;-80
2022/08/26 06:33:20;;;;;;;7.00;4.20;;;21.30;95.60;;;;;;5092970;28;20389;-81
2022/08/26 06:35:47;;;;;;;7.45;4.20;;;21.30;95.70;;;;;;5094718;28;20376;-80
2022/08/26 06:38:14;;;;;;;6.80;4.75;;;21.30;95.80;;;;;;5093322;28;20030;-79
2022/08/26 06:40:51;;;;;;;7.50;4.30;;;21.30;96.00;;;;;;5094002;28;20020;-79
2022/08/26 06:43:23;;;;;;;8.82;4.13;;;21.30;96.20;;;;;;5093136;28;20377;-81
2022/08/26 06:45:49;;;;;;;6.55;4.38;;;21.30;96.30;;;;;;5093277;28;20023;-80
2022/08/26 06:48:18;;;;;;;8.13;4.32;;;21.30;96.30;;;;;;5093245;28;20031;-81
2022/08/26 06:50:44;;;;;;;7.55;4.35;;;21.40;96.20;;;;;;5093271;28;20030;-79
2022/08/26 06:53:12;;;;;;;6.35;4.40;;;21.50;96.20;;;;;;5092973;28;20048;-79
2022/08/26 06:55:44;;;;;;;6.15;4.70;;;21.60;96.30;;;;;;5092585;28;20039;-80
2022/08/26 06:58:11;;;;;;;10.23;4.55;;;21.70;96.20;;;;;;5093833;28;20107;-80
2022/08/26 07:00:37;;;;;;;10.88;4.50;;;21.80;96.30;;;;;;5092801;28;20045;-80
2022/08/26 07:03:05;;;;;;;6.45;4.10;;;21.90;96.00;;;;;;5094034;28;20559;-79
2022/08/26 07:05:31;;;;;;;9.68;4.55;;;22.00;96.30;;;;;;5093261;28;20504;-80
2022/08/26 07:07:57;;;;;;;9.57;4.95;;;22.10;95.80;;;;;;5092535;28;20028;-80
2022/08/26 07:10:23;;;;;;;9.30;5.22;;;22.10;95.50;;;;;;5092112;28;20062;-80
2022/08/26 07:12:49;;;;;;;11.40;5.47;;;22.20;95.40;;;;;;5093033;28;20109;-82
2022/08/26 07:15:15;;;;;;;11.13;6.68;;;22.30;95.20;;;;;;5092356;28;20032;-82
2022/08/26 07:17:41;;;;;;;8.30;4.80;;;22.30;95.10;;;;;;5092216;28;20028;-82
2022/08/26 07:20:08;;;;;;;10.07;4.80;;;22.40;95.00;;;;;;5092322;28;20047;-79
2022/08/26 07:22:34;;;;;;;8.30;4.70;;;22.50;95.30;;;;;;5091865;28;20032;-78
2022/08/26 07:24:59;;;;;;;9.13;4.88;;;22.50;94.80;;;;;;5093596;28;20089;-78
2022/08/26 07:27:25;;;;;;;7.93;4.50;;;22.50;94.70;;;;;;5092930;28;20024;-77
2022/08/26 07:29:55;;;;;;;7.10;4.28;;;22.60;94.60;;;;;;5094659;28;20020;-81
2022/08/26 07:32:21;;;;;;;10.07;4.67;;;22.60;94.40;;;;;;5093553;28;20042;-82
2022/08/26 07:34:47;;;;;;;6.20;4.30;;;22.70;94.10;;;;;;5092729;28;20352;-80
2022/08/26 07:37:14;;;;;;;6.55;4.47;;;22.80;94.20;;;;;;5093788;28;20102;-80
2022/08/26 07:39:40;;;;;;;6.45;4.65;;;23.00;93.70;;;;;;5093226;28;20085;-80
2022/08/26 07:42:07;;;;;;;8.10;4.30;;;23.20;93.40;;;;;;5094079;28;20023;-81
2022/08/26 07:44:34;;;;;;;7.50;3.97;;;23.30;93.30;;;;;;5094004;28;20023;-81
2022/08/26 07:47:00;;;;;;;6.60;4.60;;;23.50;93.10;;;;;;5094607;28;20027;-80
2022/08/26 07:49:26;;;;;;;11.13;4.68;;;23.60;93.00;;;;;;5091919;28;20016;-81
2022/08/26 07:51:53;;;;;;;12.18;4.90;;;23.70;92.90;;;;;;5092412;28;20078;-80
2022/08/26 07:54:19;;;;;;;9.95;5.38;;;23.60;93.00;;;;;;5091749;28;20052;-84
2022/08/26 07:56:47;;;;;;;8.93;5.03;;;23.60;93.20;;;;;;5092008;28;20024;-80
2022/08/26 07:59:14;;;;;;;8.65;4.68;;;23.60;93.20;;;;;;5093266;28;20042;-80
2022/08/26 08:01:40;;;;;;;12.80;4.88;;;23.50;93.40;;;;;;5091447;28;20032;-80
2022/08/26 08:04:06;;;;;;;11.80;5.25;;;23.50;93.60;;;;;;5092958;28;20020;-78
2022/08/26 08:06:32;;;;;;;10.93;5.38;;;23.50;93.90;;;;;;5092910;28;20016;-80
2022/08/26 08:08:59;;;;;;;9.18;5.38;;;23.50;93.90;;;;;;5092936;28;20016;-80
2022/08/26 08:11:28;;;;;;;8.13;4.43;;;23.50;93.70;;;;;;5092792;28;20012;-80
2022/08/26 08:13:54;;;;;;;10.55;4.78;;;23.50;92.90;;;;;;5093803;28;20040;-80
2022/08/26 08:16:20;;;;;;;7.97;4.78;;;23.50;92.60;;;;;;5095434;28;20032;-84
2022/08/26 08:18:46;;;;;;;6.82;5.10;;;23.60;92.50;;;;;;5095400;28;20030;-80
2022/08/26 08:21:11;;;;;;;9.25;4.65;;;23.50;92.40;;;;;;5095695;28;20031;-80
2022/08/26 08:23:38;;;;;;;9.75;5.15;;;23.60;91.80;;;;;;5096313;28;20506;-80
2022/08/26 08:26:07;;;;;;;6.97;4.65;;;23.60;91.60;;;;;;5096533;28;20164;-79
2022/08/26 08:28:33;;;;;;;8.40;4.88;;;23.60;91.40;;;;;;5095199;28;20030;-79
2022/08/26 08:30:58;;;;;;;8.15;4.50;;;23.70;91.30;;;;;;5095519;28;20028;-79
2022/08/26 08:33:24;;;;;;;10.13;4.60;;;23.70;91.40;;;;;;5094352;28;20557;-80
2022/08/26 08:35:51;;;;;;;9.30;4.60;;;23.80;91.30;;;;;;5095148;28;20481;-79
2022/08/26 08:38:16;;;;;;;6.78;4.70;;;23.80;91.20;;;;;;5095296;28;20028;-81
2022/08/26 08:40:44;;;;;;;7.65;4.80;;;23.90;91.10;;;;;;5095860;28;20488;-81
2022/08/26 08:43:37;;;;;;;7.57;4.75;;;24.00;91.00;;;;;;5095327;28;20031;-81
2022/08/26 08:46:08;;;;;;;9.23;5.07;;;24.00;91.30;;;;;;5095417;28;20020;-80
2022/08/26 08:48:41;;;;;;;6.32;4.75;;;24.10;91.10;;;;;;5095273;28;20031;-81
2022/08/26 08:51:18;;;;;;;8.63;4.70;;;24.10;91.20;;;;;;5095146;28;20028;-81
2022/08/26 08:53:48;;;;;;;8.23;5.15;;;24.20;91.20;;;;;;5095709;28;20054;-81
2022/08/26 08:56:34;;;;;;;9.43;5.10;;;24.20;91.30;;;;;;5096179;28;20032;-80
2022/08/26 08:59:18;;;;;;;6.03;4.43;;;24.20;91.20;;;;;;5096294;28;20039;-81
2022/08/26 09:01:43;;;;;;;8.10;5.07;;;24.30;91.20;;;;;;5094068;28;20024;-81
2022/08/26 09:04:40;;;;;;;7.75;4.50;;;24.30;91.00;;;;;;5094427;28;20472;-81
2022/08/26 09:07:10;;;;;;;9.00;4.75;;;24.30;91.20;;;;;;5111175;28;20393;-81
2022/08/26 09:10:00;;;;;;;10.52;4.43;;;24.50;91.20;;;;;;5093599;28;20107;-80
2022/08/26 09:12:30;;;;;;;8.30;4.40;;;24.50;91.00;;;;;;5093374;28;20057;-81
2022/08/26 09:15:19;;;;;;;6.43;5.07;;;24.60;90.80;;;;;;5093473;28;20043;-81
2022/08/26 09:18:18;;;;;;;8.70;4.43;;;24.70;90.70;;;;;;5089884;28;20111;-80
2022/08/26 09:21:03;;;;;;;8.77;4.63;;;24.70;90.60;;;;;;5123582;27;20036;-80
2022/08/26 09:23:37;;;;;;;7.07;4.03;;;24.80;90.10;;;;;;5091737;28;20028;-81
2022/08/26 09:26:38;;;;;;;7.53;4.57;;;24.90;89.60;;;;;;5091565;28;20028;-79
2022/08/26 09:29:26;;;;;;;10.02;4.95;;;24.90;89.90;;;;;;5072622;28;20032;-80
2022/08/26 09:32:18;;;;;;;8.43;5.47;;;25.00;89.40;;;;;;5083002;28;20055;-81
2022/08/26 09:34:59;;;;;;;8.60;4.45;;;25.10;88.60;;;;;;5109012;28;20401;-80
2022/08/26 09:37:46;;;;;;;;;;;25.10;88.20;;;;;;5093325;28;20035;-82
2022/08/26 09:40:22;;;;;;;8.63;4.55;;;25.10;87.60;;;;;;5126707;27;19986;-80
2022/08/26 09:43:07;;;;;;;5.45;4.00;;;25.20;87.30;;;;;;5094787;28;20024;-81
2022/08/26 09:45:32;;;;;;;6.65;4.22;;;25.30;87.20;;;;;;5107401;28;20107;-77
2022/08/26 09:47:58;;;;;;;8.65;4.68;;;25.40;87.20;;;;;;5094333;28;20437;-78
2022/08/26 09:50:51;;;;;;;8.27;4.55;;;25.40;87.40;;;;;;5092390;28;20028;-84
2022/08/26 09:53:20;;;;;;;6.43;4.65;;;25.40;87.30;;;;;;5084842;28;20044;-80
2022/08/26 09:55:50;;;;;;;9.02;4.68;;;25.50;87.20;;;;;;5092634;28;20040;-80
2022/08/26 09:58:32;;;;;;;7.68;4.82;;;25.40;86.90;;;;;;5094437;28;20034;-80
2022/08/26 10:01:00;;;;;;;7.43;4.50;;;25.50;86.50;;;;;;5088468;28;20024;-83
2022/08/26 10:03:36;;;;;;;9.65;4.75;;;25.50;86.50;;;;;;5092727;28;20062;-84
2022/08/26 10:06:19;;;;;;;6.38;3.92;;;25.50;86.50;;;;;;5079039;28;20025;-84
2022/08/26 10:08:49;;;;;;;7.13;4.45;;;25.50;86.60;;;;;;5076695;28;20028;-90
2022/08/26 10:11:21;;;;;;;5.57;3.30;;;25.50;86.20;;;;;;5094181;28;20024;-85
2022/08/26 10:13:54;;;;;;;4.80;3.38;;;25.60;84.40;;;;;;5093816;28;20067;-83
2022/08/26 10:17:01;;;;;;;4.32;3.63;;;25.70;83.80;;;;;;5092819;28;20032;-80
2022/08/26 10:19:40;;;;;;;8.20;3.95;;;25.70;83.70;;;;;;5052541;28;20127;-83
2022/08/26 10:22:15;;;;;;;7.93;4.00;;;25.70;84.20;;;;;;5093683;28;20099;-81
2022/08/26 10:24:50;;;;;;;5.90;3.85;;;25.70;83.80;;;;;;5075227;28;20028;-85
2022/08/26 10:27:18;;;;;;;6.75;3.75;;;25.90;83.80;;;;;;5092278;28;20028;-82
2022/08/26 10:29:50;;;;;;;6.22;4.00;;;25.90;83.60;;;;;;5092761;28;20164;-81
2022/08/26 10:32:28;;;;;;;8.43;3.88;;;25.90;83.30;;;;;;5092997;28;20063;-82
2022/08/26 10:34:53;;;;;;;8.15;4.15;;;25.90;83.10;;;;;;5092517;28;20085;-84
2022/08/26 10:37:21;;;;;;;8.30;3.70;;;25.90;83.00;;;;;;5090562;28;20028;-83
2022/08/26 10:40:07;;;;;;;10.88;3.88;;;26.00;82.50;;;;;;5093696;28;20507;-88
2022/08/26 10:42:37;;;;;;;7.13;3.72;;;26.00;82.00;;;;;;5089630;28;20031;-83
2022/08/26 10:45:11;;;;;;;7.05;3.75;;;26.00;82.00;;;;;;5092537;28;20123;-83
2022/08/26 10:47:47;;;;;;;5.35;3.33;;;26.00;82.10;;;;;;5081210;28;20037;-83
2022/08/26 10:50:13;;;;;;;6.25;4.03;;;26.00;82.20;;;;;;5088249;28;20028;-83
2022/08/26 10:52:56;;;;;;;7.20;3.50;;;26.10;82.00;;;;;;5074919;28;20050;-81
2022/08/26 10:55:38;;;;;;;6.50;3.75;;;26.20;82.00;;;;;;5083507;28;20036;-85
2022/08/26 10:58:41;;;;;;;6.30;4.18;;;26.30;82.00;;;;;;5087811;28;20401;-85
2022/08/26 11:04:22;;;;;;;6.30;4.25;;;26.50;82.40;;;;;;5093249;28;20040;-85
2022/08/26 11:06:48;;;;;;;6.20;4.15;;;26.50;81.90;;;;;;5077161;28;20016;-85
2022/08/26 11:09:46;;;;;;;9.45;3.75;;;26.70;81.60;;;;;;5093592;28;20043;-81
2022/08/26 11:12:37;;;;;;;7.85;3.85;;;26.70;81.20;;;;;;5087674;28;20040;-82
2022/08/26 11:15:10;;;;;;;45.03;26.75;;;26.80;81.50;;;;;;5092540;28;20090;-81
2022/08/26 11:17:44;;;;;;;68.28;39.80;;;26.90;81.50;;;;;;5091727;28;20115;-83
2022/08/26 11:20:32;;;;;;;116.70;61.28;;;26.90;81.20;;;;;;5092244;28;20020;-80
2022/08/26 11:23:21;;;;;;;35.28;17.00;;;27.00;81.00;;;;;;5094597;28;20020;-83
2022/08/26 11:26:09;;;;;;;9.98;6.45;;;27.00;80.70;;;;;;5089488;28;20036;-83
2022/08/26 11:28:49;;;;;;;7.82;4.28;;;27.00;79.70;;;;;;5072599;28;20074;-83
2022/08/26 11:31:17;;;;;;;9.65;4.30;;;27.10;79.70;;;;;;5079708;28;20453;-84
2022/08/26 11:34:01;;;;;;;8.80;4.45;;;27.20;79.40;;;;;;5079772;28;20033;-82
2022/08/26 11:36:36;;;;;;;5.93;4.05;;;27.30;79.80;;;;;;5088330;28;20416;-83
2022/08/26 11:39:17;;;;;;;8.07;4.15;;;27.40;79.60;;;;;;5078077;28;20024;-83
2022/08/26 11:41:45;;;;;;;5.65;4.20;;;27.60;77.80;;;;;;5088922;28;20032;-84
2022/08/26 11:44:17;;;;;;;6.40;3.55;;;27.60;77.50;;;;;;5109098;28;20123;-84
2022/08/26 11:46:51;;;;;;;6.15;3.30;;;27.70;76.70;;;;;;5075345;28;20024;-83
2022/08/26 11:49:17;;;;;;;4.60;3.50;;;27.80;76.30;;;;;;5096156;28;20441;-84
2022/08/26 11:51:43;;;;;;;7.78;3.72;;;27.80;76.00;;;;;;5083672;28;20483;-85
2022/08/26 11:54:27;;;;;;;3.83;2.90;;;27.90;75.70;;;;;;5091943;28;20060;-87
2022/08/26 11:56:54;;;;;;;4.10;2.90;;;28.00;73.00;;;;;;5081272;28;20020;-86
2022/08/26 11:59:32;;;;;;;5.15;3.13;;;28.10;73.30;;;;;;5096004;28;20024;-86
2022/08/26 12:01:59;;;;;;;4.55;2.80;;;28.20;73.10;;;;;;5083362;28;20050;-86
2022/08/26 12:04:31;;;;;;;3.60;2.63;;;28.20;72.40;;;;;;5093526;28;20522;-86
2022/08/26 12:06:59;;;;;;;3.90;2.90;;;28.20;71.50;;;;;;5081045;28;20066;-82
2022/08/26 12:09:32;;;;;;;4.65;3.47;;;28.30;71.80;;;;;;5085587;28;20028;-85
2022/08/26 12:12:21;;;;;;;6.45;3.47;;;28.40;71.80;;;;;;5084499;28;20020;-81
2022/08/26 12:14:47;;;;;;;5.97;2.97;;;28.50;71.00;;;;;;5096127;28;20120;-84
2022/08/26 12:17:26;;;;;;;4.85;2.85;;;28.70;70.50;;;;;;5095634;28;20047;-86
2022/08/26 12:19:51;;;;;;;6.20;3.80;;;28.80;69.60;;;;;;5083629;28;20033;-84
2022/08/26 12:22:37;;;;;;;3.20;2.90;;;29.00;68.90;;;;;;5091705;28;20035;-83
2022/08/26 12:25:08;;;;;;;5.43;2.92;;;29.20;68.90;;;;;;5081427;28;20059;-83
2022/08/26 12:27:40;;;;;;;7.13;3.50;;;29.10;68.60;;;;;;5094931;28;20359;-86
2022/08/26 12:30:19;;;;;;;7.63;3.00;;;29.10;68.50;;;;;;5080765;28;20040;-84
2022/08/26 12:32:51;;;;;;;6.40;3.10;;;29.20;68.80;;;;;;5078636;28;20236;-86
2022/08/26 12:35:19;;;;;;;4.10;2.83;;;29.40;67.80;;;;;;5096259;28;20036;-85
2022/08/26 12:37:48;;;;;;;7.90;3.10;;;29.50;67.70;;;;;;5082722;28;20036;-88
2022/08/26 12:40:39;;;;;;;7.75;3.20;;;29.70;67.00;;;;;;5091811;28;20024;-87
2022/08/26 12:43:07;;;;;;;8.32;3.22;;;29.70;66.50;;;;;;5095172;28;20040;-83
2022/08/26 12:45:42;;;;;;;4.57;3.00;;;29.80;65.60;;;;;;5094299;28;20055;-84
2022/08/26 12:48:33;;;;;;;3.45;3.03;;;29.90;64.10;;;;;;5079817;28;20020;-84
2022/08/26 12:50:59;;;;;;;4.13;3.13;;;30.10;62.70;;;;;;5075685;28;20123;-84
2022/08/26 12:53:28;;;;;;;4.05;3.08;;;30.20;63.50;;;;;;5094212;28;20048;-89
2022/08/26 12:55:57;;;;;;;4.90;2.90;;;30.50;63.40;;;;;;5081377;28;20470;-86
2022/08/26 12:58:36;;;;;;;3.58;2.63;;;30.70;62.30;;;;;;5089952;28;20125;-89
2022/08/26 13:01:07;;;;;;;5.75;2.47;;;31.00;60.70;;;;;;5096335;28;20028;-85
2022/08/26 13:03:33;;;;;;;4.78;2.90;;;31.30;60.30;;;;;;5084068;28;20151;-85
2022/08/26 13:06:28;;;;;;;4.13;2.78;;;31.60;59.60;;;;;;5090146;28;20043;-85
2022/08/26 13:09:07;;;;;;;4.90;2.67;;;31.90;59.10;;;;;;5082845;28;20016;-79